Terminal Aerodrome Forecast
Issued by NWS

Home | Current Version | Previous Version | Text Only | Print | Product List | Glossary On
Versions: 1 2 3 4 5 6 7 8 9 10 11 12 13 14 15 16 17
309
FTAK31 PAJN 071132
TAFAYA
TAF
PAYA 071132Z 0712/0812 09005KT P6SM SCT025 BKN200
     FM071500 07010KT P6SM BKN030 OVC060
     FM072000 10010G20KT 6SM -RASN SCT030 OVC045 WS020/09035KT
     FM080000 12010KT 5SM -RA BR BKN020 OVC030
      AMD LTD TO CLD VIS AND WIND 0801/0809=

USA.gov is the U.S. government's official web portal to all federal, state and local government web resources and services.